Time;durP1;ratioP1;P1;durP2;ratioP2;P2;SDS_P1;SDS_P2;PMS_P1;PMS_P2;Temp;Humidity;BMP_temperature;BMP_pressure;BME280_temperature;BME280_humidity;BME280_pressure;Samples;Min_cycle;Max_cycle;Signal;HPM_P1;HPM_P2
2022/03/18 00:01:51;;;;;;;12.48;4.07;;;4.70;99.90;;;;;;5112309;28;20085;-61
2022/03/18 00:04:17;;;;;;;10.73;4.60;;;4.70;99.90;;;;;;5112057;28;20036;-61
2022/03/18 00:06:43;;;;;;;14.63;4.65;;;4.70;99.90;;;;;;5110554;28;20052;-61
2022/03/18 00:09:28;;;;;;;15.38;4.53;;;4.70;99.90;;;;;;5112286;28;20120;-61
2022/03/18 00:11:54;;;;;;;10.95;4.45;;;4.70;99.90;;;;;;5049142;28;20063;-61
2022/03/18 00:14:21;;;;;;;13.30;4.00;;;4.70;99.90;;;;;;5049278;28;20049;-61
2022/03/18 00:16:47;;;;;;;11.35;4.10;;;4.60;99.90;;;;;;5032462;28;20045;-60
2022/03/18 00:19:13;;;;;;;13.77;3.95;;;4.60;99.90;;;;;;5049236;28;20082;-61
2022/03/18 00:21:39;;;;;;;10.30;3.92;;;4.70;99.90;;;;;;5049202;28;20072;-61
2022/03/18 00:24:06;;;;;;;11.70;4.03;;;4.50;99.90;;;;;;5049304;28;20057;-61
2022/03/18 00:26:31;;;;;;;14.73;4.25;;;4.40;99.90;;;;;;5049232;28;20183;-60
2022/03/18 00:28:57;;;;;;;14.73;3.50;;;4.30;99.90;;;;;;5049148;28;20135;-61
2022/03/18 00:31:23;;;;;;;10.48;4.18;;;4.30;99.90;;;;;;5049436;28;20462;-61
2022/03/18 00:33:49;;;;;;;17.42;5.05;;;4.40;99.90;;;;;;5049268;28;20049;-61
2022/03/18 00:36:15;;;;;;;11.35;3.80;;;4.40;99.90;;;;;;5049120;28;20132;-60
2022/03/18 00:38:40;;;;;;;12.40;4.38;;;4.40;99.90;;;;;;5048767;28;20057;-61
2022/03/18 00:41:07;;;;;;;11.40;4.32;;;4.30;99.90;;;;;;5032490;28;20171;-62
2022/03/18 00:43:33;;;;;;;10.88;4.70;;;4.30;99.90;;;;;;5049111;28;20513;-61
2022/03/18 00:45:58;;;;;;;9.98;4.07;;;4.30;99.90;;;;;;5049452;28;20040;-61
2022/03/18 00:53:53;;;;;;;13.93;4.68;;;4.40;99.90;;;;;;5115675;28;20048;-61
2022/03/18 00:56:19;;;;;;;14.27;5.10;;;4.30;99.90;;;;;;5113880;28;20432;-61
2022/03/18 00:58:45;;;;;;;10.85;4.28;;;4.40;99.90;;;;;;5115610;28;20043;-61
2022/03/18 01:01:10;;;;;;;9.75;4.80;;;4.40;99.90;;;;;;5115531;28;20039;-60
2022/03/18 01:03:36;;;;;;;14.25;5.45;;;4.40;99.90;;;;;;5115422;28;20422;-61
2022/03/18 01:06:02;;;;;;;16.25;5.90;;;4.40;99.90;;;;;;5115596;28;20523;-61
2022/03/18 01:08:28;;;;;;;16.20;5.18;;;4.40;99.90;;;;;;5115905;28;20382;-61
2022/03/18 01:10:54;;;;;;;12.88;5.57;;;4.30;99.90;;;;;;5115541;28;20063;-61
2022/03/18 01:13:20;;;;;;;17.23;6.55;;;4.30;99.90;;;;;;5115379;28;20128;-61
2022/03/18 01:15:46;;;;;;;16.42;5.88;;;4.20;99.90;;;;;;5115207;28;20146;-61
2022/03/18 01:18:12;;;;;;;14.20;5.55;;;4.20;99.90;;;;;;5113938;28;20122;-61
2022/03/18 01:20:37;;;;;;;20.20;6.50;;;4.20;99.90;;;;;;5096342;28;20047;-61
2022/03/18 01:23:06;;;;;;;14.27;6.05;;;4.20;99.90;;;;;;5115255;28;20039;-61
2022/03/18 01:25:35;;;;;;;19.48;6.93;;;4.20;99.90;;;;;;5115272;28;20071;-61
2022/03/18 01:28:01;;;;;;;22.63;8.23;;;4.30;99.90;;;;;;5115097;28;20083;-61
2022/03/18 01:30:32;;;;;;;15.15;6.72;;;4.40;99.90;;;;;;5114877;28;20044;-61
2022/03/18 01:33:01;;;;;;;14.27;5.93;;;4.30;99.90;;;;;;5114883;28;20040;-60
2022/03/18 01:35:27;;;;;;;15.82;6.35;;;4.30;99.90;;;;;;5115059;28;20074;-61
2022/03/18 01:37:53;;;;;;;17.05;6.05;;;4.20;99.90;;;;;;5115091;27;20564;-61
2022/03/18 01:40:19;;;;;;;13.52;6.53;;;4.20;99.90;;;;;;5114701;28;20090;-61
2022/03/18 01:42:45;;;;;;;15.82;6.53;;;4.10;99.90;;;;;;5114787;28;20092;-61
2022/03/18 01:45:11;;;;;;;12.95;6.20;;;4.00;99.90;;;;;;5114615;28;20039;-61
2022/03/18 01:47:42;;;;;;;12.80;5.68;;;4.00;99.90;;;;;;5113449;28;20036;-61
2022/03/18 01:50:10;;;;;;;18.10;6.47;;;4.00;99.90;;;;;;5115010;28;20040;-61
2022/03/18 01:52:37;;;;;;;16.73;6.63;;;3.90;99.90;;;;;;5114565;28;20410;-61
2022/03/18 01:55:03;;;;;;;18.08;7.70;;;4.00;99.90;;;;;;5114761;28;20031;-61
2022/03/18 01:57:28;;;;;;;12.68;6.47;;;4.00;99.90;;;;;;5113783;28;20043;-61
2022/03/18 01:59:54;;;;;;;16.73;7.43;;;4.00;99.90;;;;;;5113990;28;20035;-61
2022/03/18 02:02:20;;;;;;;17.63;7.22;;;4.00;99.90;;;;;;5114192;28;20035;-61
2022/03/18 02:04:47;;;;;;;23.05;7.32;;;4.10;99.90;;;;;;5114453;28;20039;-61
2022/03/18 02:07:13;;;;;;;14.88;7.20;;;4.00;99.90;;;;;;5114373;28;20450;-61
2022/03/18 02:09:40;;;;;;;20.05;7.13;;;3.90;99.90;;;;;;5114201;28;20401;-61
2022/03/18 02:12:07;;;;;;;17.63;9.18;;;4.00;99.90;;;;;;5114442;28;20036;-61
2022/03/18 02:14:52;;;;;;;16.83;8.30;;;4.00;99.90;;;;;;5113962;28;20039;-61
2022/03/18 02:17:18;;;;;;;14.13;7.47;;;3.90;99.90;;;;;;5114285;28;20071;-62
2022/03/18 02:19:45;;;;;;;18.40;6.70;;;3.90;99.90;;;;;;5114150;28;20394;-61
2022/03/18 02:22:12;;;;;;;11.30;6.68;;;3.80;99.90;;;;;;5114024;28;20032;-61
2022/03/18 02:24:39;;;;;;;15.10;7.38;;;3.70;99.90;;;;;;5113794;28;20074;-61
2022/03/18 02:27:05;;;;;;;12.60;5.90;;;3.80;99.90;;;;;;5114329;28;20040;-61
2022/03/18 02:29:32;;;;;;;11.93;6.28;;;3.80;99.90;;;;;;5113744;28;20036;-61
2022/03/18 02:31:58;;;;;;;11.23;6.55;;;3.80;99.90;;;;;;5113992;28;20213;-60
2022/03/18 02:34:23;;;;;;;16.48;7.38;;;3.90;99.90;;;;;;5113642;28;20130;-61
2022/03/18 02:36:49;;;;;;;16.55;6.43;;;3.80;99.90;;;;;;5113566;28;20043;-61
2022/03/18 02:39:16;;;;;;;14.57;6.85;;;3.80;99.90;;;;;;5113451;28;20443;-61
2022/03/18 02:41:42;;;;;;;14.23;7.13;;;3.90;99.90;;;;;;5113483;28;20047;-61
2022/03/18 02:44:08;;;;;;;14.30;6.75;;;3.90;99.90;;;;;;5113545;28;20039;-61
2022/03/18 02:46:33;;;;;;;13.70;6.30;;;3.90;99.90;;;;;;5113466;28;20500;-61
2022/03/18 02:49:04;;;;;;;15.63;7.75;;;3.90;99.90;;;;;;5113482;28;20111;-61
2022/03/18 02:51:30;;;;;;;12.52;6.75;;;3.80;99.90;;;;;;5113418;28;20032;-61
2022/03/18 02:53:57;;;;;;;13.50;6.72;;;3.70;99.90;;;;;;5113075;28;20485;-61
2022/03/18 02:56:23;;;;;;;15.75;8.27;;;3.70;99.90;;;;;;5113120;28;20110;-61
2022/03/18 02:58:49;;;;;;;19.90;9.52;;;3.60;99.90;;;;;;5113389;28;20039;-61
2022/03/18 03:01:15;;;;;;;32.22;11.88;;;3.70;99.90;;;;;;5113352;28;20078;-61
2022/03/18 03:03:41;;;;;;;29.45;12.43;;;3.50;99.90;;;;;;5113168;28;20043;-61
2022/03/18 03:08:50;;;;;;;16.92;8.95;;;3.60;99.90;;;;;;5112583;28;20048;-61
2022/03/18 03:11:16;;;;;;;15.15;8.38;;;3.70;99.90;;;;;;5113232;28;20382;-61
2022/03/18 03:13:42;;;;;;;20.55;9.82;;;3.70;99.90;;;;;;5112999;28;20031;-61
2022/03/18 03:16:08;;;;;;;14.63;8.05;;;3.60;99.90;;;;;;5113049;28;20032;-61
2022/03/18 03:18:35;;;;;;;13.30;8.05;;;3.50;99.90;;;;;;5112960;28;20031;-62
2022/03/18 03:21:00;;;;;;;13.70;7.40;;;3.40;99.90;;;;;;5112666;28;20036;-61
2022/03/18 03:23:26;;;;;;;18.00;8.48;;;3.50;99.90;;;;;;5112714;28;20042;-61
2022/03/18 03:25:56;;;;;;;17.08;7.95;;;3.50;99.90;;;;;;5112932;28;20422;-61
2022/03/18 03:28:22;;;;;;;17.23;7.32;;;3.60;99.90;;;;;;5112660;28;20062;-61
2022/03/18 03:30:48;;;;;;;16.00;7.97;;;3.60;99.90;;;;;;5112778;28;20039;-62
2022/03/18 03:33:14;;;;;;;13.52;6.28;;;3.50;99.90;;;;;;5112521;28;20031;-62
2022/03/18 03:35:40;;;;;;;12.10;7.18;;;3.50;99.90;;;;;;5112472;28;20035;-61
2022/03/18 03:38:07;;;;;;;11.85;6.38;;;3.50;99.90;;;;;;5112442;28;20044;-61
2022/03/18 03:40:33;;;;;;;12.85;6.30;;;3.50;99.90;;;;;;5112298;28;20101;-61
2022/03/18 03:42:59;;;;;;;10.93;6.18;;;3.50;99.90;;;;;;5112464;28;20489;-61
2022/03/18 03:45:25;;;;;;;18.25;7.78;;;3.50;99.90;;;;;;5112351;28;20114;-61
2022/03/18 03:47:51;;;;;;;13.27;6.53;;;3.50;99.90;;;;;;5112595;28;20122;-61
2022/03/18 03:50:17;;;;;;;13.90;6.53;;;3.50;99.90;;;;;;5112394;28;20035;-61
2022/03/18 03:52:43;;;;;;;13.63;6.57;;;3.50;99.90;;;;;;5112063;28;20126;-61
2022/03/18 03:55:11;;;;;;;13.15;5.95;;;3.50;99.90;;;;;;5112302;28;20110;-61
2022/03/18 03:57:38;;;;;;;14.52;7.25;;;3.60;99.90;;;;;;5112518;28;20085;-61
2022/03/18 04:00:08;;;;;;;13.73;7.20;;;3.50;99.90;;;;;;5112309;28;20039;-61
2022/03/18 04:02:34;;;;;;;16.92;7.05;;;3.60;99.90;;;;;;5112304;28;20446;-61
2022/03/18 04:05:00;;;;;;;13.50;7.57;;;3.70;99.90;;;;;;5112234;28;20114;-60
2022/03/18 04:07:26;;;;;;;19.75;8.18;;;3.70;99.90;;;;;;5112039;28;20032;-61
2022/03/18 04:09:54;;;;;;;13.48;8.00;;;3.70;99.90;;;;;;5112206;28;20126;-61
2022/03/18 04:12:23;;;;;;;14.05;6.95;;;3.80;99.90;;;;;;5112203;28;20043;-61
2022/03/18 04:14:51;;;;;;;10.20;6.82;;;3.80;99.90;;;;;;5112194;28;20039;-61
2022/03/18 04:17:17;;;;;;;13.30;7.40;;;3.80;99.90;;;;;;5112044;28;20039;-62
2022/03/18 04:19:42;;;;;;;16.55;8.18;;;3.80;99.90;;;;;;5112377;28;20039;-61
2022/03/18 04:22:08;;;;;;;15.52;8.18;;;3.80;99.90;;;;;;5114245;28;20492;-61
2022/03/18 04:24:34;;;;;;;18.00;8.40;;;3.80;99.90;;;;;;5115225;28;20194;-61
2022/03/18 04:27:00;;;;;;;16.08;8.57;;;3.90;99.90;;;;;;5116241;28;20063;-61
2022/03/18 04:29:25;;;;;;;18.08;7.97;;;3.90;99.90;;;;;;5116227;27;20460;-61
2022/03/18 04:31:52;;;;;;;15.80;8.52;;;4.00;99.90;;;;;;5116058;28;20497;-61
2022/03/18 04:34:17;;;;;;;15.13;7.88;;;4.00;99.90;;;;;;5116153;27;20126;-61
2022/03/18 04:36:44;;;;;;;15.88;7.90;;;4.10;99.90;;;;;;5115240;28;20142;-62
2022/03/18 04:39:10;;;;;;;14.93;8.25;;;4.20;99.90;;;;;;5116207;28;20142;-61
2022/03/18 04:41:36;;;;;;;22.00;8.93;;;4.30;99.90;;;;;;5115852;28;20535;-62
2022/03/18 04:44:03;;;;;;;16.15;8.43;;;4.40;99.90;;;;;;5115914;28;20035;-62
2022/03/18 04:46:31;;;;;;;17.58;7.82;;;4.50;99.90;;;;;;5115773;28;20039;-61
2022/03/18 04:49:00;;;;;;;18.60;8.50;;;4.50;99.90;;;;;;5115581;28;20039;-61
2022/03/18 04:51:26;;;;;;;;;;;4.50;99.90;;;;;;5116566;28;20039;-61
2022/03/18 04:53:51;;;;;;;15.35;7.93;;;4.60;99.90;;;;;;5115726;28;19927;-61
2022/03/18 04:59:01;;;;;;;16.17;8.00;;;4.70;99.90;;;;;;5115505;28;20123;-61
2022/03/18 05:01:27;;;;;;;14.95;7.40;;;4.70;99.90;;;;;;5115473;28;20152;-61
2022/03/18 05:03:53;;;;;;;16.05;7.25;;;4.60;99.90;;;;;;5113679;28;20083;-61
2022/03/18 05:06:19;;;;;;;12.02;7.60;;;4.60;99.90;;;;;;5114919;28;20078;-60
2022/03/18 05:08:44;;;;;;;16.52;8.70;;;4.70;99.90;;;;;;5115248;28;20104;-62
2022/03/18 05:11:12;;;;;;;15.00;7.53;;;4.60;99.90;;;;;;5115134;28;20042;-61
2022/03/18 05:13:38;;;;;;;14.63;8.02;;;4.50;99.90;;;;;;5115158;28;20047;-61
2022/03/18 05:16:04;;;;;;;14.52;7.57;;;4.50;99.90;;;;;;5115160;28;20035;-61
2022/03/18 05:18:30;;;;;;;12.63;7.50;;;4.40;99.90;;;;;;5115218;28;20031;-61
2022/03/18 05:20:56;;;;;;;14.65;7.60;;;4.30;99.90;;;;;;5115186;28;20035;-61
2022/03/18 05:23:22;;;;;;;14.57;7.38;;;4.40;99.90;;;;;;5115206;28;20035;-61
2022/03/18 05:25:47;;;;;;;16.88;7.85;;;4.30;99.90;;;;;;5114999;28;20054;-61
2022/03/18 05:28:13;;;;;;;13.40;8.15;;;4.30;99.90;;;;;;5114958;28;20081;-61
2022/03/18 05:30:40;;;;;;;17.92;7.97;;;4.20;99.90;;;;;;5114937;28;20118;-60
2022/03/18 05:33:06;;;;;;;18.48;8.43;;;4.20;99.90;;;;;;5113415;28;20086;-61
2022/03/18 05:35:32;;;;;;;14.40;7.70;;;4.20;99.90;;;;;;5115411;27;20090;-61
2022/03/18 05:37:58;;;;;;;13.55;7.63;;;4.20;99.90;;;;;;5115150;28;20031;-61
2022/03/18 05:40:24;;;;;;;18.65;8.02;;;4.20;99.90;;;;;;5114600;27;20051;-61
2022/03/18 05:42:50;;;;;;;14.18;7.60;;;4.20;99.90;;;;;;5114695;28;20431;-61
2022/03/18 05:45:16;;;;;;;17.45;7.65;;;4.10;99.90;;;;;;5114532;28;20089;-61
2022/03/18 05:47:42;;;;;;;13.20;7.63;;;4.00;99.90;;;;;;5114842;28;20385;-61
2022/03/18 05:50:08;;;;;;;12.65;7.47;;;4.00;99.90;;;;;;5113316;28;20089;-61
2022/03/18 05:52:35;;;;;;;20.70;7.45;;;4.10;99.90;;;;;;5114608;28;20034;-61
2022/03/18 05:55:00;;;;;;;14.82;7.53;;;4.20;99.90;;;;;;5114607;28;20039;-61
2022/03/18 05:57:27;;;;;;;14.43;7.88;;;4.20;99.90;;;;;;5114410;28;20084;-61
2022/03/18 05:59:57;;;;;;;14.25;7.82;;;4.20;99.90;;;;;;5114334;28;20081;-61
2022/03/18 06:02:22;;;;;;;14.02;8.20;;;4.10;99.90;;;;;;5114459;28;20031;-61
2022/03/18 06:04:49;;;;;;;14.02;7.95;;;4.10;99.90;;;;;;5114377;28;20031;-61
2022/03/18 06:07:15;;;;;;;11.05;6.70;;;4.10;99.90;;;;;;5114467;28;20039;-61
2022/03/18 06:12:25;;;;;;;19.55;8.15;;;3.90;99.90;;;;;;5114063;28;20090;-63
2022/03/18 06:14:50;;;;;;;16.40;8.07;;;3.90;99.90;;;;;;5114268;28;20071;-62
2022/03/18 06:17:16;;;;;;;12.27;7.32;;;4.00;99.90;;;;;;5114201;28;20032;-62
2022/03/18 06:19:42;;;;;;;13.63;8.20;;;4.10;99.90;;;;;;5113988;28;20519;-62
2022/03/18 06:22:08;;;;;;;12.55;8.35;;;4.30;99.90;;;;;;5114000;28;20040;-62
2022/03/18 06:24:34;;;;;;;13.30;8.35;;;4.60;99.90;;;;;;5113929;28;20054;-62
2022/03/18 06:27:01;;;;;;;12.23;7.10;;;4.80;99.90;;;;;;5113962;28;20047;-62
2022/03/18 06:29:30;;;;;;;11.80;7.85;;;4.90;99.90;;;;;;5114177;28;20058;-63
2022/03/18 06:31:57;;;;;;;14.77;7.82;;;5.00;99.90;;;;;;5113743;28;20603;-62
2022/03/18 06:34:23;;;;;;;14.73;8.13;;;5.30;99.90;;;;;;5113907;28;20063;-62
2022/03/18 06:36:51;;;;;;;11.13;7.40;;;5.40;99.90;;;;;;5113764;28;20481;-62
2022/03/18 06:39:18;;;;;;;10.90;7.35;;;5.50;99.90;;;;;;5113359;28;20066;-63
2022/03/18 06:41:44;;;;;;;14.88;8.07;;;5.50;99.90;;;;;;5113623;27;20114;-62
2022/03/18 06:44:09;;;;;;;20.08;8.50;;;5.50;99.90;;;;;;5112991;28;20077;-63
2022/03/18 06:46:36;;;;;;;16.30;7.55;;;5.60;99.90;;;;;;5110119;28;20040;-62
2022/03/18 06:49:03;;;;;;;14.32;7.70;;;5.60;99.90;;;;;;5091240;28;20102;-60
2022/03/18 06:51:29;;;;;;;12.57;7.60;;;5.70;99.90;;;;;;5092990;28;20443;-60
2022/03/18 06:53:55;;;;;;;14.63;8.25;;;5.70;99.90;;;;;;5108560;28;20105;-61
2022/03/18 06:56:21;;;;;;;16.17;7.38;;;5.70;99.90;;;;;;5092861;28;20044;-61
2022/03/18 06:58:46;;;;;;;13.55;8.57;;;5.80;99.90;;;;;;5093044;28;20036;-62
2022/03/18 07:01:12;;;;;;;17.83;8.55;;;5.70;99.90;;;;;;5107473;28;20375;-61
2022/03/18 07:03:38;;;;;;;15.18;8.02;;;5.80;99.90;;;;;;5092773;28;20047;-61
2022/03/18 07:06:06;;;;;;;13.07;7.93;;;5.90;99.90;;;;;;5090548;28;20070;-61
2022/03/18 07:08:32;;;;;;;14.52;8.35;;;6.00;99.90;;;;;;5087254;28;20105;-59
2022/03/18 07:10:58;;;;;;;18.13;8.18;;;6.10;99.90;;;;;;5092780;28;20055;-58
2022/03/18 07:13:24;;;;;;;18.38;8.50;;;6.10;99.90;;;;;;5092629;28;20040;-59
2022/03/18 07:15:49;;;;;;;16.17;8.25;;;6.30;99.90;;;;;;5092505;28;20367;-59
2022/03/18 07:18:15;;;;;;;13.52;8.73;;;6.40;99.90;;;;;;5091066;28;20036;-59
2022/03/18 07:20:41;;;;;;;15.25;9.63;;;6.60;99.90;;;;;;5092514;28;20107;-59
2022/03/18 07:23:06;;;;;;;14.55;8.82;;;6.90;99.90;;;;;;5092416;28;20090;-59
2022/03/18 07:25:37;;;;;;;17.13;8.27;;;7.20;99.90;;;;;;5092225;28;20067;-59
2022/03/18 07:28:04;;;;;;;11.60;8.00;;;7.50;99.90;;;;;;5092447;28;20425;-59
2022/03/18 07:30:30;;;;;;;11.82;7.80;;;7.90;99.90;;;;;;5092209;28;20549;-59
2022/03/18 07:32:56;;;;;;;15.63;8.10;;;8.30;99.90;;;;;;5092095;28;20098;-59
2022/03/18 07:35:24;;;;;;;16.20;8.55;;;8.60;99.90;;;;;;5092241;28;20093;-59
2022/03/18 07:37:50;;;;;;;12.93;7.72;;;9.10;99.90;;;;;;5092124;28;20504;-60
2022/03/18 07:40:18;;;;;;;13.95;7.57;;;9.40;99.90;;;;;;5092043;28;20048;-60
2022/03/18 07:42:55;;;;;;;12.83;8.03;;;9.60;99.90;;;;;;5092344;28;20390;-60
2022/03/18 07:45:26;;;;;;;13.55;7.90;;;9.90;99.90;;;;;;5092143;28;20047;-60
2022/03/18 07:47:52;;;;;;;14.30;7.90;;;10.10;99.90;;;;;;5092061;28;20115;-60
2022/03/18 07:50:22;;;;;;;12.30;7.32;;;10.50;99.90;;;;;;5090740;28;20166;-60
2022/03/18 07:52:55;;;;;;;15.05;7.80;;;10.90;99.90;;;;;;5092228;28;20028;-60
2022/03/18 07:55:23;;;;;;;14.25;7.35;;;11.30;99.90;;;;;;5092142;28;20073;-60
2022/03/18 07:57:49;;;;;;;21.33;9.20;;;11.60;99.90;;;;;;5091932;28;20081;-60
2022/03/18 08:00:16;;;;;;;15.40;8.13;;;11.70;99.90;;;;;;5091715;28;20490;-60
2022/03/18 08:02:42;;;;;;;16.23;7.85;;;12.00;99.90;;;;;;5091765;28;20623;-60
2022/03/18 08:05:09;;;;;;;17.88;8.18;;;12.10;99.90;;;;;;5091995;28;20075;-60
2022/03/18 08:07:35;;;;;;;20.30;7.78;;;12.40;99.90;;;;;;5091884;28;20040;-60
2022/03/18 08:10:03;;;;;;;17.77;7.97;;;12.60;99.90;;;;;;5091918;28;20051;-58
2022/03/18 08:12:29;;;;;;;14.48;7.38;;;12.80;99.90;;;;;;5091628;28;20040;-58
2022/03/18 08:14:58;;;;;;;15.07;7.90;;;13.10;99.90;;;;;;5091714;28;20459;-58
2022/03/18 08:17:25;;;;;;;20.30;7.93;;;13.20;99.90;;;;;;5091636;28;20111;-58
2022/03/18 08:19:51;;;;;;;17.73;7.60;;;13.40;99.90;;;;;;5091903;28;20082;-58
2022/03/18 08:22:20;;;;;;;18.63;7.85;;;13.70;99.90;;;;;;5091708;28;20483;-58
2022/03/18 08:24:46;;;;;;;15.23;7.43;;;13.80;99.90;;;;;;5091770;28;20044;-58
2022/03/18 08:27:11;;;;;;;19.45;8.27;;;13.60;99.90;;;;;;5091564;28;20038;-58
2022/03/18 08:29:38;;;;;;;14.98;7.75;;;14.10;99.90;;;;;;5091437;28;20040;-58
2022/03/18 08:32:06;;;;;;;21.98;7.72;;;14.30;99.90;;;;;;5091491;28;20040;-57
2022/03/18 08:34:31;;;;;;;15.70;7.00;;;14.60;99.90;;;;;;5091385;28;20127;-58
2022/03/18 08:36:57;;;;;;;19.55;7.40;;;14.80;99.90;;;;;;5091514;28;20119;-58
2022/03/18 08:39:24;;;;;;;18.92;6.90;;;15.00;99.90;;;;;;5091376;28;20529;-58
2022/03/18 08:41:50;;;;;;;21.98;8.52;;;15.10;99.90;;;;;;5091427;28;20502;-58
2022/03/18 08:44:19;;;;;;;14.95;6.28;;;15.20;99.90;;;;;;5090236;28;20428;-58
2022/03/18 08:46:46;;;;;;;16.83;6.75;;;15.50;99.90;;;;;;5091610;28;20082;-58
2022/03/18 08:49:12;;;;;;;13.90;6.15;;;15.50;99.90;;;;;;5091306;28;20547;-58
2022/03/18 08:51:38;;;;;;;16.02;7.90;;;15.80;99.90;;;;;;5091345;28;20032;-58
2022/03/18 08:54:05;;;;;;;14.75;6.55;;;15.70;99.90;;;;;;5091373;28;20040;-58
2022/03/18 08:56:31;;;;;;;11.60;6.35;;;16.00;99.90;;;;;;5091301;28;20538;-58
2022/03/18 08:58:57;;;;;;;14.30;6.85;;;16.30;99.90;;;;;;5091122;28;20074;-58
2022/03/18 09:01:23;;;;;;;15.40;6.38;;;16.30;99.90;;;;;;5091458;28;20031;-57
2022/03/18 09:03:49;;;;;;;19.77;6.50;;;16.60;99.90;;;;;;5091348;28;20054;-58
2022/03/18 09:06:14;;;;;;;19.30;6.57;;;16.80;99.90;;;;;;5091412;28;20487;-57
2022/03/18 09:08:41;;;;;;;22.90;7.28;;;17.10;99.90;;;;;;5094600;28;20044;-57
2022/03/18 09:11:07;;;;;;;14.40;5.88;;;17.30;99.90;;;;;;5094933;28;20379;-58
2022/03/18 09:13:35;;;;;;;15.07;6.13;;;17.30;99.90;;;;;;5094661;28;20040;-57
2022/03/18 09:16:02;;;;;;;22.65;7.18;;;17.40;99.90;;;;;;5094735;28;20032;-58
2022/03/18 09:18:28;;;;;;;19.15;6.13;;;17.40;99.90;;;;;;5091910;28;20036;-58
2022/03/18 09:20:54;;;;;;;17.60;6.53;;;17.70;99.90;;;;;;5092601;28;20028;-58
2022/03/18 09:23:19;;;;;;;20.73;7.03;;;17.70;99.90;;;;;;5093672;28;20093;-58
2022/03/18 09:25:45;;;;;;;13.70;6.43;;;17.40;99.90;;;;;;5076543;28;20106;-59
2022/03/18 09:28:10;;;;;;;16.77;6.25;;;17.60;99.90;;;;;;5088271;28;20048;-58
2022/03/18 09:30:36;;;;;;;16.35;5.90;;;17.60;99.90;;;;;;5073771;28;20051;-58
2022/03/18 09:33:02;;;;;;;23.38;7.30;;;17.90;99.90;;;;;;5074359;28;20087;-58
2022/03/18 09:35:27;;;;;;;21.85;6.60;;;18.10;99.90;;;;;;5072954;28;20111;-58
2022/03/18 09:37:53;;;;;;;13.02;5.47;;;18.30;99.90;;;;;;5074205;28;20033;-58
2022/03/18 09:40:20;;;;;;;18.13;7.03;;;18.00;99.90;;;;;;5074166;28;20080;-58
2022/03/18 09:43:15;;;;;;;19.05;6.82;;;18.10;99.90;;;;;;5073911;28;20079;-58
2022/03/18 09:45:41;;;;;;;20.92;6.80;;;18.20;99.90;;;;;;5051849;28;20053;-58
2022/03/18 09:48:09;;;;;;;18.25;6.53;;;17.60;99.90;;;;;;5051806;28;20426;-58
2022/03/18 09:50:36;;;;;;;12.48;5.85;;;17.40;99.90;;;;;;5034781;28;20053;-58
2022/03/18 09:53:02;;;;;;;16.73;6.32;;;17.30;99.90;;;;;;5051549;28;20041;-58
2022/03/18 09:55:30;;;;;;;16.67;5.95;;;17.40;99.90;;;;;;5051536;28;20049;-58
2022/03/18 09:57:56;;;;;;;13.93;6.25;;;17.30;99.90;;;;;;5051599;28;20467;-58
2022/03/18 10:00:22;;;;;;;18.92;6.55;;;17.10;99.90;;;;;;5051562;28;20044;-58
2022/03/18 10:03:07;;;;;;;17.35;5.95;;;17.30;99.90;;;;;;5051517;28;20123;-58
2022/03/18 10:05:33;;;;;;;18.77;5.95;;;17.30;99.90;;;;;;5051522;28;20502;-58
2022/03/18 10:07:58;;;;;;;15.18;6.55;;;17.30;99.90;;;;;;5057311;28;20143;-58
2022/03/18 10:10:26;;;;;;;17.17;6.20;;;17.30;99.90;;;;;;5071377;28;20097;-58
2022/03/18 10:12:55;;;;;;;16.77;6.90;;;17.60;99.90;;;;;;5071389;28;20056;-58
2022/03/18 10:15:24;;;;;;;19.88;6.07;;;17.50;99.90;;;;;;5071358;28;20467;-58
2022/03/18 10:17:54;;;;;;;12.43;5.63;;;17.60;99.90;;;;;;5074553;28;20067;-58
2022/03/18 10:20:30;;;;;;;14.75;5.28;;;17.30;99.90;;;;;;5053731;28;20040;-59
2022/03/18 10:23:16;;;;;;;18.17;5.20;;;17.40;99.90;;;;;;5085878;28;20379;-61
2022/03/18 10:25:50;;;;;;;18.73;6.03;;;17.50;99.90;;;;;;5033285;28;20045;-61
2022/03/18 10:28:30;;;;;;;17.90;5.88;;;17.70;99.90;;;;;;5039265;28;20111;-59
2022/03/18 10:31:16;;;;;;;16.33;5.50;;;17.90;99.90;;;;;;5031033;28;20840;-59
2022/03/18 10:39:33;;;;;;;16.55;5.05;;;17.80;99.90;;;;;;5030712;28;20123;-59
2022/03/18 10:42:01;;;;;;;17.83;4.97;;;17.70;99.90;;;;;;5035041;28;20045;-59
2022/03/18 10:44:31;;;;;;;21.77;6.05;;;17.50;99.90;;;;;;5027369;28;20051;-59
2022/03/18 10:46:57;;;;;;;16.80;5.65;;;17.70;99.90;;;;;;5008140;28;20061;-59
2022/03/18 10:49:24;;;;;;;15.40;5.90;;;17.90;99.90;;;;;;5030501;28;20049;-59
2022/03/18 10:51:52;;;;;;;17.20;5.13;;;17.70;99.90;;;;;;5026889;28;20041;-58
2022/03/18 10:54:24;;;;;;;13.45;4.88;;;17.70;99.90;;;;;;5019646;28;20400;-58
2022/03/18 10:56:59;;;;;;;15.40;5.28;;;17.80;99.90;;;;;;5023583;28;20045;-58
2022/03/18 10:59:27;;;;;;;19.70;5.35;;;17.90;99.90;;;;;;5023046;28;20060;-59
2022/03/18 11:01:56;;;;;;;16.40;5.53;;;17.80;99.90;;;;;;5028381;28;20520;-58
2022/03/18 11:04:23;;;;;;;19.00;5.78;;;18.00;99.90;;;;;;5090578;28;20775;-58
2022/03/18 11:12:28;;;;;;;12.10;4.90;;;18.00;99.90;;;;;;5092477;28;20048;-58
2022/03/18 11:14:57;;;;;;;16.92;4.97;;;18.20;99.90;;;;;;5092604;28;20044;-59
2022/03/18 11:17:24;;;;;;;13.02;5.25;;;18.20;99.90;;;;;;5092401;28;20516;-58
2022/03/18 11:19:52;;;;;;;14.18;4.53;;;18.30;99.90;;;;;;5092511;28;20443;-58
2022/03/18 11:22:18;;;;;;;;;;;18.30;99.90;;;;;;5092737;28;20573;-58
2022/03/18 11:24:46;;;;;;;14.90;4.72;;;18.20;99.90;;;;;;5092336;28;20018;-59
2022/03/18 11:27:12;;;;;;;13.25;4.80;;;18.50;99.90;;;;;;5092604;28;20040;-58
2022/03/18 11:29:38;;;;;;;19.42;5.30;;;18.20;99.90;;;;;;5092277;28;20046;-58
2022/03/18 11:32:09;;;;;;;24.17;6.05;;;18.40;99.90;;;;;;5089111;28;20044;-58
2022/03/18 11:34:58;;;;;;;16.95;5.60;;;18.70;99.90;;;;;;5092433;28;20043;-58
2022/03/18 11:37:29;;;;;;;15.60;5.28;;;18.70;99.90;;;;;;5092402;28;20046;-59
2022/03/18 11:40:19;;;;;;;20.90;6.38;;;18.40;99.90;;;;;;5092375;28;20059;-58
2022/03/18 11:42:48;;;;;;;15.90;5.22;;;18.60;99.90;;;;;;5092267;28;20489;-58
2022/03/18 11:45:42;;;;;;;21.35;6.47;;;18.80;99.90;;;;;;5092345;28;20044;-58
2022/03/18 11:48:34;;;;;;;14.45;5.70;;;18.90;99.90;;;;;;5091255;28;20044;-58
2022/03/18 11:51:26;;;;;;;17.70;4.50;;;19.30;99.90;;;;;;5091708;28;20434;-59
2022/03/18 11:54:23;;;;;;;12.88;4.32;;;19.20;99.90;;;;;;5092466;28;20452;-59
2022/03/18 11:56:50;;;;;;;20.25;5.40;;;18.90;99.90;;;;;;5090877;28;20497;-59
2022/03/18 11:59:27;;;;;;;14.13;4.72;;;18.60;99.90;;;;;;5090592;28;20055;-58
2022/03/18 12:02:12;;;;;;;19.77;5.82;;;18.20;99.90;;;;;;5086757;28;20058;-58
2022/03/18 12:04:39;;;;;;;12.02;4.40;;;18.30;99.90;;;;;;5090094;28;20385;-58
2022/03/18 12:07:14;;;;;;;16.13;4.40;;;18.70;99.90;;;;;;5093209;28;20052;-58
2022/03/18 12:09:53;;;;;;;10.85;4.35;;;18.80;99.90;;;;;;5088911;28;20040;-58
2022/03/18 12:12:34;;;;;;;17.55;4.93;;;18.80;99.90;;;;;;5088963;28;20069;-58
2022/03/18 12:15:06;;;;;;;20.45;5.25;;;18.60;99.90;;;;;;5086030;28;20036;-58
2022/03/18 12:17:41;;;;;;;12.85;3.65;;;19.00;99.90;;;;;;5090551;28;20375;-58
2022/03/18 12:20:09;;;;;;;20.27;4.95;;;19.10;99.90;;;;;;5090097;28;20502;-58
2022/03/18 12:22:38;;;;;;;13.73;4.57;;;19.30;99.90;;;;;;5088104;28;20082;-58
2022/03/18 12:25:05;;;;;;;20.35;5.00;;;19.40;99.90;;;;;;5091320;28;20044;-58
2022/03/18 12:27:36;;;;;;;17.15;4.70;;;19.50;99.90;;;;;;5087141;28;20081;-58
2022/03/18 12:30:04;;;;;;;16.27;4.40;;;19.20;99.90;;;;;;5091849;28;20370;-58
2022/03/18 12:32:30;;;;;;;12.57;4.82;;;18.80;99.90;;;;;;5089354;28;20046;-58
2022/03/18 12:34:57;;;;;;;18.60;4.93;;;18.70;99.90;;;;;;5096683;28;20044;-58
2022/03/18 12:37:31;;;;;;;14.07;4.05;;;18.40;99.90;;;;;;5090326;28;20028;-58
2022/03/18 12:40:00;;;;;;;16.70;4.28;;;18.50;99.90;;;;;;5089711;28;20082;-58
2022/03/18 12:42:26;;;;;;;17.13;5.07;;;19.10;99.90;;;;;;5092767;28;20066;-58
2022/03/18 12:44:57;;;;;;;14.75;4.97;;;18.40;99.90;;;;;;5095745;28;20111;-58
2022/03/18 12:47:26;;;;;;;14.38;5.57;;;18.90;99.90;;;;;;5095584;28;20047;-58
2022/03/18 12:49:51;;;;;;;;;;;19.20;99.90;;;;;;5095842;28;20043;-58
2022/03/18 12:52:19;;;;;;;15.25;4.57;;;19.30;99.90;;;;;;5095227;28;19916;-58
2022/03/18 12:55:06;;;;;;;16.67;4.28;;;18.80;99.90;;;;;;5095281;28;20040;-58
2022/03/18 12:57:34;;;;;;;19.80;5.10;;;18.90;99.90;;;;;;5095223;28;20478;-58
2022/03/18 12:59:59;;;;;;;14.60;4.47;;;18.70;99.90;;;;;;5095083;28;20059;-58
2022/03/18 13:02:25;;;;;;;20.98;5.18;;;18.90;99.90;;;;;;5095211;28;20482;-58
2022/03/18 13:04:58;;;;;;;16.20;4.55;;;18.90;99.90;;;;;;5094994;28;20065;-58
2022/03/18 13:07:25;;;;;;;11.70;4.47;;;18.70;99.90;;;;;;5095338;28;20062;-59
2022/03/18 13:09:51;;;;;;;16.70;4.65;;;18.60;99.90;;;;;;5094951;28;20048;-59
2022/03/18 13:12:30;;;;;;;19.98;4.57;;;18.60;99.90;;;;;;5095351;28;20454;-59